createdAt,value
2019-02-17T00:00:51.471Z,80.00
2019-02-17T00:03:54.671Z,80.73
2019-02-17T00:06:57.903Z,80.98
2019-02-17T00:10:01.047Z,81.31
2019-02-17T00:13:04.139Z,81.41
2019-02-17T00:16:07.244Z,81.53
2019-02-17T00:19:10.514Z,81.02
2019-02-17T00:22:13.635Z,80.40
2019-02-17T00:25:16.847Z,80.48
2019-02-17T00:28:20.114Z,80.70
2019-02-17T00:31:23.360Z,81.48
2019-02-17T00:34:26.595Z,81.57
2019-02-17T00:37:29.755Z,81.91
2019-02-17T00:40:32.936Z,82.19
2019-02-17T00:43:36.189Z,81.83
2019-02-17T00:46:39.283Z,81.71
2019-02-17T00:49:42.498Z,81.42
2019-02-17T00:52:45.731Z,80.86
2019-02-17T00:55:48.916Z,81.80
2019-02-17T00:58:52.082Z,81.31
2019-02-17T01:01:55.275Z,81.69
2019-02-17T01:04:58.367Z,82.11
2019-02-17T01:08:01.451Z,82.10
2019-02-17T01:11:04.638Z,81.67
2019-02-17T01:14:07.759Z,81.40
2019-02-17T01:17:10.959Z,81.49
2019-02-17T01:20:14.117Z,81.82
2019-02-17T01:23:17.304Z,82.25
2019-02-17T01:26:20.393Z,82.18
2019-02-17T01:29:23.500Z,81.87
2019-02-17T01:32:26.682Z,81.49
2019-02-17T01:35:29.890Z,81.68
2019-02-17T01:38:33.115Z,81.55
2019-02-17T01:41:36.223Z,80.92
2019-02-17T01:44:39.367Z,81.42
2019-02-17T01:47:42.569Z,81.29
2019-02-17T01:50:45.743Z,81.38
2019-02-17T01:53:48.874Z,81.83
2019-02-17T01:56:52.043Z,81.24
2019-02-17T01:59:55.231Z,81.03
2019-02-17T02:02:58.339Z,81.41
2019-02-17T02:06:01.522Z,81.20
2019-02-17T02:09:06.559Z,81.35
2019-02-17T02:12:09.785Z,81.15
2019-02-17T02:15:12.974Z,80.76
2019-02-17T02:18:16.134Z,81.04
2019-02-17T02:21:19.339Z,80.94
2019-02-17T02:24:22.543Z,81.73
2019-02-17T02:27:25.726Z,81.98
2019-02-17T02:30:28.924Z,81.47
2019-02-17T02:33:32.024Z,81.49
2019-02-17T02:36:35.221Z,82.13
2019-02-17T02:39:38.332Z,82.50
2019-02-17T02:42:41.488Z,82.63
2019-02-17T02:45:44.684Z,82.23
2019-02-17T02:48:47.781Z,83.22
2019-02-17T02:51:50.985Z,82.76
2019-02-17T02:54:54.197Z,83.32
2019-02-17T02:57:57.822Z,82.30
2019-02-17T03:01:00.979Z,82.62
2019-02-17T03:04:04.161Z,82.73
2019-02-17T03:07:10.472Z,83.22
2019-02-17T03:10:13.611Z,82.85
2019-02-17T03:13:16.835Z,83.11
2019-02-17T03:16:20.026Z,82.79
2019-02-17T03:19:23.095Z,83.14
2019-02-17T03:22:26.280Z,82.87
2019-02-17T03:25:29.475Z,83.41
2019-02-17T03:28:32.583Z,82.18
2019-02-17T03:31:35.800Z,83.72
2019-02-17T03:34:38.887Z,83.18
2019-02-17T03:37:42.072Z,82.79
2019-02-17T03:40:45.261Z,82.80
2019-02-17T03:43:48.455Z,82.93
2019-02-17T03:46:51.634Z,83.14
2019-02-17T03:49:54.794Z,83.65
2019-02-17T03:52:57.939Z,83.34
2019-02-17T03:56:01.149Z,83.78
2019-02-17T03:59:04.331Z,84.14
2019-02-17T04:02:07.522Z,83.83
2019-02-17T04:05:10.690Z,83.73
2019-02-17T04:08:13.911Z,83.21
2019-02-17T04:11:17.149Z,84.63
2019-02-17T04:14:20.288Z,84.19
2019-02-17T04:17:23.488Z,83.56
2019-02-17T04:20:26.574Z,83.95
2019-02-17T04:23:31.539Z,84.60
2019-02-17T04:26:32.874Z,84.39
2019-02-17T04:29:36.058Z,83.95
2019-02-17T04:32:39.278Z,83.34
2019-02-17T04:35:42.417Z,82.81
2019-02-17T04:38:45.531Z,83.20
2019-02-17T04:41:48.708Z,83.00
2019-02-17T04:44:51.829Z,82.76
2019-02-17T04:47:55.003Z,82.68
2019-02-17T04:50:58.130Z,82.83
2019-02-17T04:54:01.316Z,83.41
2019-02-17T04:57:04.546Z,82.98
2019-02-17T05:00:08.018Z,82.44
2019-02-17T05:03:11.205Z,82.21
2019-02-17T05:06:14.376Z,82.91
2019-02-17T05:09:17.503Z,82.98
2019-02-17T05:12:20.688Z,82.65
2019-02-17T05:15:23.874Z,82.89
2019-02-17T05:18:27.081Z,82.48
2019-02-17T05:21:30.256Z,83.12
2019-02-17T05:24:33.443Z,82.20
2019-02-17T05:27:36.630Z,82.57
2019-02-17T05:30:51.763Z,82.63
2019-02-17T05:33:42.936Z,83.02
2019-02-17T05:36:46.055Z,83.87
2019-02-17T05:39:49.201Z,83.86
2019-02-17T05:42:52.424Z,83.65
2019-02-17T05:45:55.615Z,83.74
2019-02-17T05:48:58.703Z,83.07
2019-02-17T05:52:01.888Z,83.89
2019-02-17T05:55:05.434Z,83.49
2019-02-17T05:58:08.628Z,84.30
2019-02-17T06:01:17.372Z,83.54
2019-02-17T06:04:20.499Z,84.40
2019-02-17T06:07:23.703Z,83.94
2019-02-17T06:10:26.887Z,84.04
2019-02-17T06:13:30.212Z,84.05
2019-02-17T06:16:33.374Z,83.76
2019-02-17T06:19:36.556Z,84.49
2019-02-17T06:22:39.954Z,85.25
2019-02-17T06:25:43.100Z,85.02
2019-02-17T06:28:46.255Z,85.15
2019-02-17T06:31:49.467Z,84.71
2019-02-17T06:34:52.673Z,85.37
2019-02-17T06:37:55.831Z,85.00
2019-02-17T06:40:58.903Z,85.08
2019-02-17T06:44:02.037Z,84.46
2019-02-17T06:47:06.848Z,84.62
2019-02-17T06:50:10.257Z,83.68
2019-02-17T06:53:13.531Z,84.01
2019-02-17T06:56:21.835Z,83.64
2019-02-17T06:59:24.939Z,83.59
2019-02-17T07:02:28.024Z,83.67
2019-02-17T07:05:39.642Z,83.59
2019-02-17T07:08:42.739Z,83.75
2019-02-17T07:11:45.988Z,83.16
2019-02-17T07:14:49.159Z,83.27
2019-02-17T07:17:52.305Z,82.11
2019-02-17T07:20:55.554Z,82.81
2019-02-17T07:23:58.715Z,81.75
2019-02-17T07:27:01.963Z,81.04
2019-02-17T07:30:05.246Z,81.24
2019-02-17T07:33:08.401Z,80.54
2019-02-17T07:36:11.597Z,80.91
2019-02-17T07:39:14.856Z,80.03
2019-02-17T07:42:18.011Z,79.50
2019-02-17T07:45:21.224Z,78.84
2019-02-17T07:48:24.349Z,78.71
2019-02-17T07:51:27.549Z,78.34
2019-02-17T07:54:30.639Z,78.09
2019-02-17T07:57:33.835Z,77.88
2019-02-17T08:00:36.939Z,77.30
2019-02-17T08:03:40.143Z,77.34
2019-02-17T08:06:43.245Z,76.54
2019-02-17T08:09:46.429Z,76.00
2019-02-17T08:12:49.613Z,75.43
2019-02-17T08:15:52.792Z,74.74
2019-02-17T08:18:56.007Z,74.16
2019-02-17T08:21:59.100Z,73.40
2019-02-17T08:25:02.274Z,72.87
2019-02-17T08:28:05.359Z,71.47
2019-02-17T08:31:08.461Z,71.24
2019-02-17T08:34:11.577Z,70.36
2019-02-17T08:37:14.752Z,69.57
2019-02-17T08:40:17.998Z,68.84
2019-02-17T08:43:21.434Z,69.26
2019-02-17T08:46:24.531Z,68.52
2019-02-17T08:49:27.637Z,68.12
2019-02-17T08:52:30.827Z,67.65
2019-02-17T08:55:34.011Z,67.75
2019-02-17T08:58:37.207Z,67.42
2019-02-17T09:01:40.551Z,67.02
2019-02-17T09:04:43.611Z,67.38
2019-02-17T09:07:46.816Z,67.38
2019-02-17T09:10:49.990Z,66.34
2019-02-17T09:13:53.198Z,65.66
2019-02-17T09:16:56.292Z,65.79
2019-02-17T09:19:59.484Z,65.56
2019-02-17T09:23:02.640Z,65.28
2019-02-17T09:26:05.859Z,64.67
2019-02-17T09:29:09.071Z,64.41
2019-02-17T09:32:16.217Z,64.12
2019-02-17T09:35:15.466Z,63.58
2019-02-17T09:38:18.649Z,63.53
2019-02-17T09:41:21.834Z,63.02
2019-02-17T09:44:25.068Z,61.99
2019-02-17T09:47:28.267Z,61.81
2019-02-17T09:50:31.454Z,61.32
2019-02-17T09:53:34.613Z,61.22
2019-02-17T09:56:37.869Z,59.70
2019-02-17T09:59:41.029Z,59.86
2019-02-17T10:02:44.203Z,58.66
2019-02-17T10:05:47.398Z,58.30
2019-02-17T10:08:50.571Z,57.62
2019-02-17T10:11:53.791Z,57.76
2019-02-17T10:14:56.958Z,56.96
2019-02-17T10:18:00.059Z,57.43
2019-02-17T10:21:03.252Z,56.67
2019-02-17T10:24:06.349Z,56.94
2019-02-17T10:27:09.529Z,56.21
2019-02-17T10:30:12.895Z,55.58
2019-02-17T10:33:15.979Z,55.58
2019-02-17T10:36:19.133Z,54.72
2019-02-17T10:39:22.207Z,54.42
2019-02-17T10:42:25.420Z,53.88
2019-02-17T10:45:28.603Z,52.94
2019-02-17T10:48:31.687Z,52.71
2019-02-17T10:51:34.899Z,52.42
2019-02-17T10:54:37.998Z,51.86
2019-02-17T10:57:41.203Z,51.68
2019-02-17T11:00:44.398Z,52.07
2019-02-17T11:03:59.892Z,51.10
2019-02-17T11:07:03.021Z,50.97
2019-02-17T11:10:06.714Z,49.58
2019-02-17T11:13:09.851Z,49.34
2019-02-17T11:16:13.051Z,49.53
2019-02-17T11:19:16.239Z,49.78
2019-02-17T11:22:23.125Z,50.45
2019-02-17T11:25:22.680Z,48.93
2019-02-17T11:28:25.831Z,48.61
2019-02-17T11:31:29.035Z,48.40
2019-02-17T11:34:32.243Z,47.48
2019-02-17T11:37:35.404Z,47.22
2019-02-17T11:40:38.649Z,47.07
2019-02-17T11:43:41.808Z,47.18
2019-02-17T11:46:44.912Z,46.35
2019-02-17T11:49:48.095Z,46.54
2019-02-17T11:52:51.265Z,47.05
2019-02-17T11:55:54.410Z,46.86
2019-02-17T11:58:57.595Z,46.58
2019-02-17T12:02:00.769Z,46.17
2019-02-17T12:05:04.032Z,46.30
2019-02-17T12:08:07.194Z,46.87
2019-02-17T12:11:10.364Z,45.43
2019-02-17T12:14:13.591Z,45.45
2019-02-17T12:17:16.757Z,44.97
2019-02-17T12:22:32.400Z,45.84
2019-02-17T12:25:40.694Z,44.21
2019-02-17T12:28:49.503Z,44.57
2019-02-17T12:31:52.723Z,43.95
2019-02-17T12:34:55.901Z,43.31
2019-02-17T12:37:59.086Z,42.42
2019-02-17T12:41:02.153Z,42.24
2019-02-17T12:44:05.403Z,41.68
2019-02-17T12:47:08.577Z,41.42
2019-02-17T12:50:12.346Z,41.93
2019-02-17T12:53:15.425Z,40.52
2019-02-17T12:56:18.575Z,40.97
2019-02-17T12:59:21.731Z,39.38
2019-02-17T13:02:24.951Z,38.66
2019-02-17T13:05:28.077Z,37.56
2019-02-17T13:08:31.228Z,37.28
2019-02-17T13:11:34.303Z,37.04
2019-02-17T13:14:37.409Z,37.10
2019-02-17T13:17:40.602Z,36.44
2019-02-17T13:20:43.841Z,36.04
2019-02-17T13:23:47.299Z,35.11
2019-02-17T13:26:50.498Z,34.80
2019-02-17T13:29:53.699Z,35.08
2019-02-17T13:32:56.872Z,33.93
2019-02-17T13:36:00.027Z,34.64
2019-02-17T13:39:03.172Z,34.41
2019-02-17T13:42:06.315Z,34.59
2019-02-17T13:45:10.848Z,34.86
2019-02-17T13:48:13.969Z,34.16
2019-02-17T13:51:17.054Z,34.48
2019-02-17T13:54:20.284Z,32.46
2019-02-17T13:57:23.370Z,32.89
2019-02-17T14:00:26.548Z,32.30
2019-02-17T14:03:29.668Z,31.90
2019-02-17T14:06:32.824Z,32.02
2019-02-17T14:09:35.944Z,32.64
2019-02-17T14:12:39.111Z,32.14
2019-02-17T14:15:42.241Z,32.45
2019-02-17T14:18:45.415Z,31.75
2019-02-17T14:21:48.639Z,31.93
2019-02-17T14:24:51.822Z,32.39
2019-02-17T14:27:55.012Z,32.00
2019-02-17T14:30:58.107Z,28.91
2019-02-17T14:34:01.303Z,30.10
2019-02-17T14:37:04.399Z,29.42
2019-02-17T14:40:07.598Z,30.74
2019-02-17T14:43:10.752Z,31.95
2019-02-17T14:46:13.943Z,31.61
2019-02-17T14:49:18.063Z,26.50
2019-02-17T14:52:21.155Z,30.79
2019-02-17T14:55:24.376Z,31.71
2019-02-17T14:58:27.543Z,32.68
2019-02-17T15:01:30.635Z,32.84
2019-02-17T15:04:33.727Z,33.66
2019-02-17T15:07:36.917Z,33.25
2019-02-17T15:10:40.016Z,34.89
2019-02-17T15:13:43.091Z,34.88
2019-02-17T15:16:46.229Z,34.79
2019-02-17T15:19:49.397Z,34.95
2019-02-17T15:22:52.570Z,35.52
2019-02-17T15:25:55.784Z,35.72
2019-02-17T15:28:59.007Z,34.99
2019-02-17T15:32:02.217Z,35.43
2019-02-17T15:35:05.445Z,36.49
2019-02-17T15:38:08.565Z,36.62
2019-02-17T15:41:11.847Z,36.42
2019-02-17T15:44:14.961Z,37.58
2019-02-17T15:47:18.185Z,36.58
2019-02-17T15:50:21.366Z,36.75
2019-02-17T15:53:24.563Z,36.73
2019-02-17T15:56:27.693Z,36.75
2019-02-17T15:59:30.875Z,36.85
2019-02-17T16:02:33.966Z,37.04
2019-02-17T16:05:37.072Z,36.96
2019-02-17T16:08:40.183Z,36.68
2019-02-17T16:11:43.265Z,36.52
2019-02-17T16:14:46.338Z,37.16
2019-02-17T16:17:49.503Z,36.67
2019-02-17T16:20:52.688Z,36.88
2019-02-17T16:23:55.874Z,37.05
2019-02-17T16:26:59.123Z,37.29
2019-02-17T16:30:02.295Z,38.05
2019-02-17T16:33:05.465Z,38.79
2019-02-17T16:36:08.671Z,39.75
2019-02-17T16:39:13.119Z,40.37
2019-02-17T16:42:16.239Z,40.63
2019-02-17T16:45:19.554Z,41.39
2019-02-17T16:48:22.761Z,42.07
2019-02-17T16:51:25.860Z,42.76
2019-02-17T16:54:29.063Z,43.22
2019-02-17T16:57:32.284Z,43.83
2019-02-17T17:00:35.546Z,44.04
2019-02-17T17:03:38.635Z,44.48
2019-02-17T17:06:41.827Z,44.65
2019-02-17T17:09:45.101Z,45.23
2019-02-17T17:12:48.276Z,45.73
2019-02-17T17:15:51.427Z,45.79
2019-02-17T17:18:54.596Z,46.24
2019-02-17T17:21:57.675Z,46.90
2019-02-17T17:25:00.783Z,47.85
2019-02-17T17:28:04.607Z,48.23
2019-02-17T17:31:07.795Z,49.26
2019-02-17T17:34:11.090Z,49.76
2019-02-17T17:37:14.182Z,50.78
2019-02-17T17:40:17.414Z,51.39
2019-02-17T17:43:20.582Z,52.15
2019-02-17T17:46:23.711Z,52.55
2019-02-17T17:49:26.835Z,52.93
2019-02-17T17:52:29.999Z,53.54
2019-02-17T17:55:33.148Z,54.30
2019-02-17T17:58:36.379Z,54.73
2019-02-17T18:01:39.575Z,55.34
2019-02-17T18:04:42.742Z,54.32
2019-02-17T18:07:45.907Z,55.34
2019-02-17T18:10:49.004Z,55.54
2019-02-17T18:13:52.116Z,56.15
2019-02-17T18:16:55.319Z,56.47
2019-02-17T18:19:58.516Z,57.43
2019-02-17T18:23:01.693Z,57.22
2019-02-17T18:26:04.911Z,57.45
2019-02-17T18:29:08.078Z,57.64
2019-02-17T18:32:11.215Z,57.77
2019-02-17T18:35:19.624Z,58.14
2019-02-17T18:38:17.770Z,58.66
2019-02-17T18:41:26.636Z,59.46
2019-02-17T18:44:29.890Z,59.49
2019-02-17T18:47:33.105Z,59.51
2019-02-17T18:50:36.218Z,59.63
2019-02-17T18:53:39.372Z,59.84
2019-02-17T18:56:42.483Z,60.31
2019-02-17T18:59:45.675Z,60.27
2019-02-17T19:02:48.845Z,60.79
2019-02-17T19:05:51.943Z,60.66
2019-02-17T19:08:55.180Z,60.89
2019-02-17T19:11:58.263Z,61.09
2019-02-17T19:15:01.422Z,60.90
2019-02-17T19:18:04.522Z,60.66
2019-02-17T19:21:07.739Z,59.98
2019-02-17T19:24:10.857Z,59.95
2019-02-17T19:27:14.003Z,59.58
2019-02-17T19:30:17.215Z,58.99
2019-02-17T19:33:20.623Z,57.94
2019-02-17T19:36:23.831Z,58.57
2019-02-17T19:39:26.958Z,58.45
2019-02-17T19:42:30.128Z,58.12
2019-02-17T19:45:34.182Z,58.04
2019-02-17T19:48:37.312Z,57.28
2019-02-17T19:51:40.497Z,57.58
2019-02-17T19:54:43.694Z,57.23
2019-02-17T19:57:47.055Z,57.25
2019-02-17T20:00:49.986Z,58.12
2019-02-17T20:03:58.390Z,59.04
2019-02-17T20:07:01.687Z,58.72
2019-02-17T20:10:05.183Z,59.22
2019-02-17T20:13:08.570Z,60.09
2019-02-17T20:16:11.498Z,60.38
2019-02-17T20:19:14.627Z,60.09
2019-02-17T20:22:17.859Z,60.60
2019-02-17T20:25:21.054Z,60.88
2019-02-17T20:28:35.683Z,61.23
2019-02-17T20:31:27.438Z,61.53
2019-02-17T20:34:30.634Z,62.00
2019-02-17T20:37:33.843Z,62.00
2019-02-17T20:40:37.023Z,62.09
2019-02-17T20:43:40.232Z,61.99
2019-02-17T20:46:43.452Z,62.02
2019-02-17T20:49:46.555Z,62.32
2019-02-17T20:52:49.704Z,62.87
2019-02-17T20:55:52.776Z,62.93
2019-02-17T20:58:55.899Z,62.64
2019-02-17T21:01:59.076Z,63.11
2019-02-17T21:05:02.270Z,63.01
2019-02-17T21:08:05.462Z,63.11
2019-02-17T21:11:08.551Z,63.08
2019-02-17T21:14:11.629Z,62.88
2019-02-17T21:17:14.692Z,62.97
2019-02-17T21:20:18.298Z,62.22
2019-02-17T21:23:21.409Z,62.69
2019-02-17T21:26:26.424Z,62.40
2019-02-17T21:29:27.824Z,62.59
2019-02-17T21:32:31.059Z,62.75
2019-02-17T21:35:34.221Z,62.85
2019-02-17T21:38:37.406Z,63.09
2019-02-17T21:41:40.527Z,63.34
2019-02-17T21:44:43.700Z,63.61
2019-02-17T21:47:46.811Z,64.16
2019-02-17T21:50:49.982Z,64.72
2019-02-17T21:53:53.169Z,64.86
2019-02-17T21:56:56.274Z,64.93
2019-02-17T21:59:59.442Z,64.87
2019-02-17T22:03:02.578Z,64.49
2019-02-17T22:06:05.779Z,64.79
2019-02-17T22:09:08.948Z,64.93
2019-02-17T22:12:12.155Z,65.35
2019-02-17T22:15:15.595Z,65.66
2019-02-17T22:18:18.735Z,65.89
2019-02-17T22:21:22.039Z,66.33
2019-02-17T22:24:25.124Z,65.75
2019-02-17T22:27:28.313Z,66.22
2019-02-17T22:30:31.436Z,66.07
2019-02-17T22:33:34.604Z,66.42
2019-02-17T22:36:43.685Z,66.74
2019-02-17T22:39:41.008Z,66.73
2019-02-17T22:42:44.175Z,66.82
2019-02-17T22:45:47.462Z,67.32
2019-02-17T22:48:51.471Z,66.94
2019-02-17T22:51:54.586Z,66.79
2019-02-17T22:54:57.694Z,66.96
2019-02-17T22:58:00.885Z,67.77
2019-02-17T23:01:06.369Z,67.12
2019-02-17T23:04:09.495Z,67.45
2019-02-17T23:07:12.609Z,68.55
2019-02-17T23:10:15.722Z,68.88
2019-02-17T23:13:18.899Z,69.48
2019-02-17T23:19:21.501Z,69.56
2019-02-17T23:22:24.783Z,69.90
2019-02-17T23:25:27.891Z,70.10
2019-02-17T23:28:31.101Z,70.23
2019-02-17T23:31:34.371Z,68.72
2019-02-17T23:34:37.520Z,70.14
2019-02-17T23:37:40.778Z,70.48
2019-02-17T23:40:43.992Z,69.01
2019-02-17T23:43:47.206Z,68.97
2019-02-17T23:46:50.359Z,69.72
2019-02-17T23:49:53.555Z,70.79
2019-02-17T23:52:56.758Z,70.73
2019-02-17T23:55:59.939Z,70.82
2019-02-17T23:59:03.246Z,71.63
